sensor_id;sensor_type;location;lat;lon;timestamp;temperature;humidity
38606;DHT22;24365;48.446;8.850;2023-05-07T00:09:10;13.40;68.90
38606;DHT22;24365;48.446;8.850;2023-05-07T00:14:11;13.40;68.90
38606;DHT22;24365;48.446;8.850;2023-05-07T00:19:12;13.40;68.80
38606;DHT22;24365;48.446;8.850;2023-05-07T00:24:13;13.30;68.80
38606;DHT22;24365;48.446;8.850;2023-05-07T00:29:14;13.20;68.70
38606;DHT22;24365;48.446;8.850;2023-05-07T00:34:15;13.20;69.00
38606;DHT22;24365;48.446;8.850;2023-05-07T00:39:16;13.00;69.60
38606;DHT22;24365;48.446;8.850;2023-05-07T00:44:17;13.00;70.60
38606;DHT22;24365;48.446;8.850;2023-05-07T00:49:19;12.80;71.40
38606;DHT22;24365;48.446;8.850;2023-05-07T00:54:21;12.80;71.60
38606;DHT22;24365;48.446;8.850;2023-05-07T00:59:23;12.70;72.10
38606;DHT22;24365;48.446;8.850;2023-05-07T01:04:24;12.70;72.40
38606;DHT22;24365;48.446;8.850;2023-05-07T01:09:26;12.70;72.10
38606;DHT22;24365;48.446;8.850;2023-05-07T01:14:28;12.60;72.50
38606;DHT22;24365;48.446;8.850;2023-05-07T01:19:29;12.60;72.30
38606;DHT22;24365;48.446;8.850;2023-05-07T01:24:33;12.60;72.70
38606;DHT22;24365;48.446;8.850;2023-05-07T01:29:35;12.60;71.50
38606;DHT22;24365;48.446;8.850;2023-05-07T01:34:36;12.50;72.00
38606;DHT22;24365;48.446;8.850;2023-05-07T01:39:38;12.40;72.60
38606;DHT22;24365;48.446;8.850;2023-05-07T01:44:40;12.30;73.30
38606;DHT22;24365;48.446;8.850;2023-05-07T01:49:42;12.40;73.20
38606;DHT22;24365;48.446;8.850;2023-05-07T01:54:43;12.30;72.90
38606;DHT22;24365;48.446;8.850;2023-05-07T01:59:44;12.40;72.70
38606;DHT22;24365;48.446;8.850;2023-05-07T02:04:45;12.30;71.90
38606;DHT22;24365;48.446;8.850;2023-05-07T02:09:47;12.30;72.10
38606;DHT22;24365;48.446;8.850;2023-05-07T02:14:49;12.20;72.70
38606;DHT22;24365;48.446;8.850;2023-05-07T02:19:50;12.10;73.00
38606;DHT22;24365;48.446;8.850;2023-05-07T02:24:51;12.10;73.10
38606;DHT22;24365;48.446;8.850;2023-05-07T02:29:52;12.00;73.60
38606;DHT22;24365;48.446;8.850;2023-05-07T02:34:53;11.90;74.20
38606;DHT22;24365;48.446;8.850;2023-05-07T02:39:54;11.80;74.90
38606;DHT22;24365;48.446;8.850;2023-05-07T02:44:56;11.70;74.80
38606;DHT22;24365;48.446;8.850;2023-05-07T02:49:57;11.60;75.10
38606;DHT22;24365;48.446;8.850;2023-05-07T02:54:58;11.60;75.40
38606;DHT22;24365;48.446;8.850;2023-05-07T02:59:59;11.60;75.20
38606;DHT22;24365;48.446;8.850;2023-05-07T03:05:06;11.50;75.20
38606;DHT22;24365;48.446;8.850;2023-05-07T03:10:09;11.50;75.20
38606;DHT22;24365;48.446;8.850;2023-05-07T03:15:10;11.50;75.40
38606;DHT22;24365;48.446;8.850;2023-05-07T03:20:14;11.50;74.80
38606;DHT22;24365;48.446;8.850;2023-05-07T03:25:16;11.40;75.20
38606;DHT22;24365;48.446;8.850;2023-05-07T03:30:17;11.50;74.90
38606;DHT22;24365;48.446;8.850;2023-05-07T03:35:19;11.40;74.10
38606;DHT22;24365;48.446;8.850;2023-05-07T03:40:20;11.40;73.90
38606;DHT22;24365;48.446;8.850;2023-05-07T03:45:25;11.30;74.10
38606;DHT22;24365;48.446;8.850;2023-05-07T03:50:36;11.30;73.30
38606;DHT22;24365;48.446;8.850;2023-05-07T03:55:38;11.20;73.90
38606;DHT22;24365;48.446;8.850;2023-05-07T04:00:39;11.10;74.10
38606;DHT22;24365;48.446;8.850;2023-05-07T04:05:52;11.10;74.10
38606;DHT22;24365;48.446;8.850;2023-05-07T04:10:57;10.90;73.90
38606;DHT22;24365;48.446;8.850;2023-05-07T04:16:02;10.90;74.30
38606;DHT22;24365;48.446;8.850;2023-05-07T04:21:03;10.90;74.00
38606;DHT22;24365;48.446;8.850;2023-05-07T04:26:05;10.90;73.50
38606;DHT22;24365;48.446;8.850;2023-05-07T04:31:16;10.80;73.90
38606;DHT22;24365;48.446;8.850;2023-05-07T04:36:18;10.80;74.00
38606;DHT22;24365;48.446;8.850;2023-05-07T04:41:25;10.80;74.50
38606;DHT22;24365;48.446;8.850;2023-05-07T04:46:27;10.80;75.20
38606;DHT22;24365;48.446;8.850;2023-05-07T04:51:31;10.80;75.40
38606;DHT22;24365;48.446;8.850;2023-05-07T04:56:34;10.80;75.60
38606;DHT22;24365;48.446;8.850;2023-05-07T05:01:37;10.70;77.20
38606;DHT22;24365;48.446;8.850;2023-05-07T05:06:39;10.80;78.10
38606;DHT22;24365;48.446;8.850;2023-05-07T05:11:42;10.90;77.80
38606;DHT22;24365;48.446;8.850;2023-05-07T05:16:43;11.10;77.50
38606;DHT22;24365;48.446;8.850;2023-05-07T05:21:44;11.30;78.10
38606;DHT22;24365;48.446;8.850;2023-05-07T05:26:47;11.60;77.30
38606;DHT22;24365;48.446;8.850;2023-05-07T05:31:48;11.80;76.70
38606;DHT22;24365;48.446;8.850;2023-05-07T05:36:50;12.00;75.60
38606;DHT22;24365;48.446;8.850;2023-05-07T05:41:51;12.10;75.10
38606;DHT22;24365;48.446;8.850;2023-05-07T05:46:53;12.30;74.60
38606;DHT22;24365;48.446;8.850;2023-05-07T05:51:56;12.50;74.40
38606;DHT22;24365;48.446;8.850;2023-05-07T05:56:59;12.60;73.30
38606;DHT22;24365;48.446;8.850;2023-05-07T06:02:05;12.70;73.10
38606;DHT22;24365;48.446;8.850;2023-05-07T06:27:53;13.20;73.90
38606;DHT22;24365;48.446;8.850;2023-05-07T06:32:54;13.20;73.30
38606;DHT22;24365;48.446;8.850;2023-05-07T06:37:55;13.30;74.30
38606;DHT22;24365;48.446;8.850;2023-05-07T06:43:01;13.60;74.50
38606;DHT22;24365;48.446;8.850;2023-05-07T06:48:10;13.70;73.30
38606;DHT22;24365;48.446;8.850;2023-05-07T06:53:24;13.90;72.70
38606;DHT22;24365;48.446;8.850;2023-05-07T06:58:28;14.20;70.50
38606;DHT22;24365;48.446;8.850;2023-05-07T07:03:30;14.40;71.20
38606;DHT22;24365;48.446;8.850;2023-05-07T07:08:31;15.00;69.50
38606;DHT22;24365;48.446;8.850;2023-05-07T07:13:32;15.40;67.00
38606;DHT22;24365;48.446;8.850;2023-05-07T07:18:33;16.00;67.90
38606;DHT22;24365;48.446;8.850;2023-05-07T07:23:34;16.60;66.80
38606;DHT22;24365;48.446;8.850;2023-05-07T07:28:42;16.60;60.20
38606;DHT22;24365;48.446;8.850;2023-05-07T07:33:43;16.40;60.80
38606;DHT22;24365;48.446;8.850;2023-05-07T07:38:44;16.20;61.20
38606;DHT22;24365;48.446;8.850;2023-05-07T07:43:46;16.50;59.80
38606;DHT22;24365;48.446;8.850;2023-05-07T07:48:48;16.70;57.60
38606;DHT22;24365;48.446;8.850;2023-05-07T07:53:50;17.00;58.50
38606;DHT22;24365;48.446;8.850;2023-05-07T07:58:52;17.30;58.10
38606;DHT22;24365;48.446;8.850;2023-05-07T08:03:55;17.50;57.80
38606;DHT22;24365;48.446;8.850;2023-05-07T08:09:00;17.60;57.90
38606;DHT22;24365;48.446;8.850;2023-05-07T08:14:02;17.50;57.40
38606;DHT22;24365;48.446;8.850;2023-05-07T08:19:04;17.40;59.80
38606;DHT22;24365;48.446;8.850;2023-05-07T08:24:06;17.60;61.00
38606;DHT22;24365;48.446;8.850;2023-05-07T08:29:08;17.90;57.30
38606;DHT22;24365;48.446;8.850;2023-05-07T08:34:09;18.40;56.40
38606;DHT22;24365;48.446;8.850;2023-05-07T08:39:15;18.90;54.70
38606;DHT22;24365;48.446;8.850;2023-05-07T08:44:21;19.40;55.50
38606;DHT22;24365;48.446;8.850;2023-05-07T08:49:23;20.00;53.10
38606;DHT22;24365;48.446;8.850;2023-05-07T08:54:26;20.40;49.00
38606;DHT22;24365;48.446;8.850;2023-05-07T08:59:29;20.70;48.80
38606;DHT22;24365;48.446;8.850;2023-05-07T09:04:31;21.30;46.60
38606;DHT22;24365;48.446;8.850;2023-05-07T09:09:33;21.80;42.80
38606;DHT22;24365;48.446;8.850;2023-05-07T09:14:35;22.00;41.50
38606;DHT22;24365;48.446;8.850;2023-05-07T09:19:38;22.00;41.40
38606;DHT22;24365;48.446;8.850;2023-05-07T09:24:48;22.50;42.40
38606;DHT22;24365;48.446;8.850;2023-05-07T09:29:50;22.80;43.40
38606;DHT22;24365;48.446;8.850;2023-05-07T09:34:52;23.20;41.80
38606;DHT22;24365;48.446;8.850;2023-05-07T09:39:56;23.50;39.40
38606;DHT22;24365;48.446;8.850;2023-05-07T09:44:59;24.00;40.30
38606;DHT22;24365;48.446;8.850;2023-05-07T09:50:08;24.00;38.30
38606;DHT22;24365;48.446;8.850;2023-05-07T09:55:15;24.20;37.90
38606;DHT22;24365;48.446;8.850;2023-05-07T10:00:22;24.30;39.20
38606;DHT22;24365;48.446;8.850;2023-05-07T10:05:24;24.60;38.90
38606;DHT22;24365;48.446;8.850;2023-05-07T10:10:29;24.70;36.80
38606;DHT22;24365;48.446;8.850;2023-05-07T10:15:32;24.90;36.50
38606;DHT22;24365;48.446;8.850;2023-05-07T10:20:36;25.10;36.90
38606;DHT22;24365;48.446;8.850;2023-05-07T10:25:41;25.10;36.10
38606;DHT22;24365;48.446;8.850;2023-05-07T10:36:50;25.10;36.30
38606;DHT22;24365;48.446;8.850;2023-05-07T10:41:53;25.10;36.60
38606;DHT22;24365;48.446;8.850;2023-05-07T10:47:06;25.50;35.70
38606;DHT22;24365;48.446;8.850;2023-05-07T10:52:15;25.80;35.70
38606;DHT22;24365;48.446;8.850;2023-05-07T10:57:34;25.80;35.80
38606;DHT22;24365;48.446;8.850;2023-05-07T11:08:08;26.00;35.90
38606;DHT22;24365;48.446;8.850;2023-05-07T11:13:41;26.20;35.90
38606;DHT22;24365;48.446;8.850;2023-05-07T11:18:51;26.20;32.80
38606;DHT22;24365;48.446;8.850;2023-05-07T11:23:59;26.00;34.80
38606;DHT22;24365;48.446;8.850;2023-05-07T11:29:12;25.70;34.90
38606;DHT22;24365;48.446;8.850;2023-05-07T11:34:21;25.30;34.90
38606;DHT22;24365;48.446;8.850;2023-05-07T11:39:30;25.00;35.60
38606;DHT22;24365;48.446;8.850;2023-05-07T11:44:45;24.80;35.90
38606;DHT22;24365;48.446;8.850;2023-05-07T11:49:50;24.50;36.10
38606;DHT22;24365;48.446;8.850;2023-05-07T11:54:52;24.10;37.30
38606;DHT22;24365;48.446;8.850;2023-05-07T11:59:54;23.80;37.50
38606;DHT22;24365;48.446;8.850;2023-05-07T12:04:55;23.50;38.90
38606;DHT22;24365;48.446;8.850;2023-05-07T12:09:56;23.10;39.20
38606;DHT22;24365;48.446;8.850;2023-05-07T12:14:58;22.80;41.10
38606;DHT22;24365;48.446;8.850;2023-05-07T12:20:00;22.30;47.30
38606;DHT22;24365;48.446;8.850;2023-05-07T12:25:01;21.50;52.20
38606;DHT22;24365;48.446;8.850;2023-05-07T12:30:03;20.70;52.10
38606;DHT22;24365;48.446;8.850;2023-05-07T12:35:06;20.10;54.60
38606;DHT22;24365;48.446;8.850;2023-05-07T12:40:10;19.60;55.90
38606;DHT22;24365;48.446;8.850;2023-05-07T12:45:15;19.00;58.90
38606;DHT22;24365;48.446;8.850;2023-05-07T12:50:16;18.50;63.00
38606;DHT22;24365;48.446;8.850;2023-05-07T12:55:17;18.30;65.20
38606;DHT22;24365;48.446;8.850;2023-05-07T13:00:38;18.20;66.80
38606;DHT22;24365;48.446;8.850;2023-05-07T13:05:39;18.10;66.70
38606;DHT22;24365;48.446;8.850;2023-05-07T13:10:40;18.00;66.30
38606;DHT22;24365;48.446;8.850;2023-05-07T13:15:41;17.60;67.50
38606;DHT22;24365;48.446;8.850;2023-05-07T13:20:42;17.50;68.90
38606;DHT22;24365;48.446;8.850;2023-05-07T13:25:43;17.40;69.80
38606;DHT22;24365;48.446;8.850;2023-05-07T13:30:45;17.20;70.70
38606;DHT22;24365;48.446;8.850;2023-05-07T13:35:46;17.30;69.90
38606;DHT22;24365;48.446;8.850;2023-05-07T13:40:47;17.50;69.30
38606;DHT22;24365;48.446;8.850;2023-05-07T13:45:48;17.60;67.90
38606;DHT22;24365;48.446;8.850;2023-05-07T13:50:49;17.60;68.00
38606;DHT22;24365;48.446;8.850;2023-05-07T13:55:50;17.50;68.60
38606;DHT22;24365;48.446;8.850;2023-05-07T14:00:51;17.50;68.30
38606;DHT22;24365;48.446;8.850;2023-05-07T14:05:52;17.50;68.20
38606;DHT22;24365;48.446;8.850;2023-05-07T14:10:53;17.60;68.00
38606;DHT22;24365;48.446;8.850;2023-05-07T14:15:54;17.40;69.90
38606;DHT22;24365;48.446;8.850;2023-05-07T14:20:55;17.50;69.50
38606;DHT22;24365;48.446;8.850;2023-05-07T14:25:57;17.60;70.30
38606;DHT22;24365;48.446;8.850;2023-05-07T14:30:58;17.50;70.50
38606;DHT22;24365;48.446;8.850;2023-05-07T14:35:59;17.60;70.50
38606;DHT22;24365;48.446;8.850;2023-05-07T14:41:00;17.60;69.70
38606;DHT22;24365;48.446;8.850;2023-05-07T14:46:01;17.80;69.40
38606;DHT22;24365;48.446;8.850;2023-05-07T14:51:04;18.10;68.10
38606;DHT22;24365;48.446;8.850;2023-05-07T14:56:05;18.60;69.10
38606;DHT22;24365;48.446;8.850;2023-05-07T15:01:06;19.00;66.40
38606;DHT22;24365;48.446;8.850;2023-05-07T15:06:08;19.30;65.00
38606;DHT22;24365;48.446;8.850;2023-05-07T15:11:09;19.60;65.30
38606;DHT22;24365;48.446;8.850;2023-05-07T15:16:10;19.50;60.90
38606;DHT22;24365;48.446;8.850;2023-05-07T15:21:11;19.60;61.50
38606;DHT22;24365;48.446;8.850;2023-05-07T15:26:14;19.60;61.70
38606;DHT22;24365;48.446;8.850;2023-05-07T15:31:15;19.50;60.30
38606;DHT22;24365;48.446;8.850;2023-05-07T15:36:17;19.40;60.70
38606;DHT22;24365;48.446;8.850;2023-05-07T15:41:19;19.30;61.60
38606;DHT22;24365;48.446;8.850;2023-05-07T15:46:22;19.20;62.10
38606;DHT22;24365;48.446;8.850;2023-05-07T15:51:26;19.10;64.00
38606;DHT22;24365;48.446;8.850;2023-05-07T15:56:28;19.20;64.70
38606;DHT22;24365;48.446;8.850;2023-05-07T16:01:33;19.10;64.60
38606;DHT22;24365;48.446;8.850;2023-05-07T16:06:34;19.00;66.10
38606;DHT22;24365;48.446;8.850;2023-05-07T16:11:35;19.00;66.10
38606;DHT22;24365;48.446;8.850;2023-05-07T16:16:37;19.00;66.00
38606;DHT22;24365;48.446;8.850;2023-05-07T16:21:40;19.00;66.90
38606;DHT22;24365;48.446;8.850;2023-05-07T16:26:42;18.90;68.00
38606;DHT22;24365;48.446;8.850;2023-05-07T16:31:43;18.80;68.80
38606;DHT22;24365;48.446;8.850;2023-05-07T16:36:46;18.80;68.50
38606;DHT22;24365;48.446;8.850;2023-05-07T16:41:47;18.80;68.80
38606;DHT22;24365;48.446;8.850;2023-05-07T16:46:50;18.70;68.70
38606;DHT22;24365;48.446;8.850;2023-05-07T16:51:53;18.60;69.90
38606;DHT22;24365;48.446;8.850;2023-05-07T16:56:54;18.40;70.80
38606;DHT22;24365;48.446;8.850;2023-05-07T17:01:55;18.30;71.80
38606;DHT22;24365;48.446;8.850;2023-05-07T17:06:56;18.20;71.90
38606;DHT22;24365;48.446;8.850;2023-05-07T17:11:57;18.20;72.00
38606;DHT22;24365;48.446;8.850;2023-05-07T17:16:58;18.20;72.40
38606;DHT22;24365;48.446;8.850;2023-05-07T17:22:01;18.10;72.70
38606;DHT22;24365;48.446;8.850;2023-05-07T17:27:02;18.10;72.70
38606;DHT22;24365;48.446;8.850;2023-05-07T17:32:03;18.00;73.70
38606;DHT22;24365;48.446;8.850;2023-05-07T17:37:04;17.80;74.80
38606;DHT22;24365;48.446;8.850;2023-05-07T17:42:05;17.50;76.60
38606;DHT22;24365;48.446;8.850;2023-05-07T17:47:06;17.40;77.60
38606;DHT22;24365;48.446;8.850;2023-05-07T17:52:08;17.40;76.70
38606;DHT22;24365;48.446;8.850;2023-05-07T17:57:09;17.50;76.30
38606;DHT22;24365;48.446;8.850;2023-05-07T18:02:10;17.40;75.80
38606;DHT22;24365;48.446;8.850;2023-05-07T18:12:34;17.30;76.50
38606;DHT22;24365;48.446;8.850;2023-05-07T18:17:35;17.20;75.90
38606;DHT22;24365;48.446;8.850;2023-05-07T18:22:37;17.20;75.70
38606;DHT22;24365;48.446;8.850;2023-05-07T18:27:38;17.10;75.90
38606;DHT22;24365;48.446;8.850;2023-05-07T18:32:39;17.10;75.70
38606;DHT22;24365;48.446;8.850;2023-05-07T18:37:40;17.00;75.70
38606;DHT22;24365;48.446;8.850;2023-05-07T18:42:41;17.00;75.80
38606;DHT22;24365;48.446;8.850;2023-05-07T18:47:43;17.00;75.90
38606;DHT22;24365;48.446;8.850;2023-05-07T18:52:43;16.90;75.50
38606;DHT22;24365;48.446;8.850;2023-05-07T18:57:45;16.80;75.20
38606;DHT22;24365;48.446;8.850;2023-05-07T19:02:47;16.70;76.70
38606;DHT22;24365;48.446;8.850;2023-05-07T19:07:49;16.70;76.00
38606;DHT22;24365;48.446;8.850;2023-05-07T19:12:50;16.70;75.80
38606;DHT22;24365;48.446;8.850;2023-05-07T19:17:55;16.60;75.70
38606;DHT22;24365;48.446;8.850;2023-05-07T19:22:56;16.60;75.50
38606;DHT22;24365;48.446;8.850;2023-05-07T19:27:58;16.50;76.00
38606;DHT22;24365;48.446;8.850;2023-05-07T19:32:59;16.40;76.60
38606;DHT22;24365;48.446;8.850;2023-05-07T19:38:01;16.40;77.00
38606;DHT22;24365;48.446;8.850;2023-05-07T19:43:02;16.40;76.90
38606;DHT22;24365;48.446;8.850;2023-05-07T19:48:03;16.30;77.20
38606;DHT22;24365;48.446;8.850;2023-05-07T19:53:05;16.20;77.30
38606;DHT22;24365;48.446;8.850;2023-05-07T19:58:06;16.20;77.60
38606;DHT22;24365;48.446;8.850;2023-05-07T20:03:07;16.10;78.90
38606;DHT22;24365;48.446;8.850;2023-05-07T20:08:11;16.10;78.20
38606;DHT22;24365;48.446;8.850;2023-05-07T20:13:14;16.10;78.00
38606;DHT22;24365;48.446;8.850;2023-05-07T20:18:15;16.10;78.10
38606;DHT22;24365;48.446;8.850;2023-05-07T20:23:16;16.00;78.30
38606;DHT22;24365;48.446;8.850;2023-05-07T20:28:17;16.00;78.30
38606;DHT22;24365;48.446;8.850;2023-05-07T20:33:18;16.00;78.40
38606;DHT22;24365;48.446;8.850;2023-05-07T20:38:20;15.90;78.70
38606;DHT22;24365;48.446;8.850;2023-05-07T20:43:21;15.90;78.70
38606;DHT22;24365;48.446;8.850;2023-05-07T20:48:22;15.90;78.80
38606;DHT22;24365;48.446;8.850;2023-05-07T20:53:23;15.90;78.70
38606;DHT22;24365;48.446;8.850;2023-05-07T20:58:27;15.90;78.60
38606;DHT22;24365;48.446;8.850;2023-05-07T21:03:28;15.80;79.00
38606;DHT22;24365;48.446;8.850;2023-05-07T21:08:29;15.80;79.10
38606;DHT22;24365;48.446;8.850;2023-05-07T21:13:30;15.80;79.00
38606;DHT22;24365;48.446;8.850;2023-05-07T21:18:31;15.70;79.50
38606;DHT22;24365;48.446;8.850;2023-05-07T21:23:32;15.70;79.30
38606;DHT22;24365;48.446;8.850;2023-05-07T21:28:33;15.70;79.60
38606;DHT22;24365;48.446;8.850;2023-05-07T21:33:34;15.70;81.30
38606;DHT22;24365;48.446;8.850;2023-05-07T21:38:36;15.70;79.50
38606;DHT22;24365;48.446;8.850;2023-05-07T21:43:37;15.60;80.20
38606;DHT22;24365;48.446;8.850;2023-05-07T21:48:38;15.60;80.30
38606;DHT22;24365;48.446;8.850;2023-05-07T21:53:39;15.60;80.40
38606;DHT22;24365;48.446;8.850;2023-05-07T21:58:40;15.60;80.60
38606;DHT22;24365;48.446;8.850;2023-05-07T22:03:41;15.60;80.90
38606;DHT22;24365;48.446;8.850;2023-05-07T22:08:42;15.60;80.80
38606;DHT22;24365;48.446;8.850;2023-05-07T22:13:43;15.50;82.70
38606;DHT22;24365;48.446;8.850;2023-05-07T22:18:45;15.50;82.30
38606;DHT22;24365;48.446;8.850;2023-05-07T22:23:46;15.40;81.90
38606;DHT22;24365;48.446;8.850;2023-05-07T22:28:47;15.40;81.90
38606;DHT22;24365;48.446;8.850;2023-05-07T22:33:48;15.40;81.80
38606;DHT22;24365;48.446;8.850;2023-05-07T22:38:49;15.40;81.90
38606;DHT22;24365;48.446;8.850;2023-05-07T22:43:49;15.40;81.90
38606;DHT22;24365;48.446;8.850;2023-05-07T22:48:51;15.40;81.90
38606;DHT22;24365;48.446;8.850;2023-05-07T22:53:52;15.40;81.60
38606;DHT22;24365;48.446;8.850;2023-05-07T22:58:53;15.30;81.90
38606;DHT22;24365;48.446;8.850;2023-05-07T23:03:54;15.30;81.80
38606;DHT22;24365;48.446;8.850;2023-05-07T23:08:55;15.30;82.00
38606;DHT22;24365;48.446;8.850;2023-05-07T23:13:56;15.30;82.00
38606;DHT22;24365;48.446;8.850;2023-05-07T23:18:57;15.30;81.80
38606;DHT22;24365;48.446;8.850;2023-05-07T23:23:58;15.30;81.90
38606;DHT22;24365;48.446;8.850;2023-05-07T23:28:59;15.30;81.80
38606;DHT22;24365;48.446;8.850;2023-05-07T23:34:00;15.30;81.90
38606;DHT22;24365;48.446;8.850;2023-05-07T23:39:01;15.30;82.40
38606;DHT22;24365;48.446;8.850;2023-05-07T23:44:02;15.30;82.20
38606;DHT22;24365;48.446;8.850;2023-05-07T23:49:03;15.20;82.20
38606;DHT22;24365;48.446;8.850;2023-05-07T23:54:04;15.30;82.00
38606;DHT22;24365;48.446;8.850;2023-05-07T23:59:06;15.30;81.80
